Agana, Guam
Current Conditions -  °F | °C
As of 12:54 PM on Tuesday 27 Jan 2015 (Local Time) from PGUM Reporting Station
Scattered Clouds Scattered Clouds  
Wind Chill: 87°   Ceiling: Unl
Heat Index: 94°   Visibility: 10mi
Dew Point: 73°   Wind: 12mph
Humidity: 63%   Direction: 90°E
Pressure: 29.85"   Gusts: NA
Location:  13.4751°N, 144.7484°E
Report Text: PGUM 270254Z 09010KT 10SM SCT025 31/23 A2985 RMK AO2 SLP100 60001 T03060228 56026
Loading
Personal Weather Stations






























Interactive Weather Map New forecast layout! Learn more

10-Day Weather Forecast

Advertisements
Track Severe Weather on mobile